Time;durP1;ratioP1;P1;durP2;ratioP2;P2;SDS_P1;SDS_P2;PMS_P1;PMS_P2;Temp;Humidity;BMP_temperature;BMP_pressure;BME280_temperature;BME280_humidity;BME280_pressure;Samples;Min_cycle;Max_cycle;Signal;HPM_P1;HPM_P2
2023/03/25 00:02:29;;;;;;;2.27;1.30;;;10.20;98.00;;;;;;5055272;28;20458;-71
2023/03/25 00:05:02;;;;;;;1.40;1.20;;;10.20;98.00;;;;;;5054736;28;20453;-71
2023/03/25 00:07:30;;;;;;;1.20;1.07;;;10.20;98.00;;;;;;5054578;28;20457;-71
2023/03/25 00:09:57;;;;;;;1.20;1.00;;;10.10;98.00;;;;;;5054513;28;20488;-72
2023/03/25 00:12:25;;;;;;;3.00;1.20;;;10.10;98.00;;;;;;5054467;28;20449;-71
2023/03/25 00:14:54;;;;;;;1.20;1.10;;;10.00;98.00;;;;;;5054455;28;20507;-71
2023/03/25 00:17:21;;;;;;;1.20;1.00;;;10.00;98.00;;;;;;5054073;28;20541;-71
2023/03/25 00:19:50;;;;;;;1.20;1.07;;;10.00;98.00;;;;;;5054275;28;20471;-71
2023/03/25 00:22:19;;;;;;;1.27;1.10;;;9.90;98.00;;;;;;5054337;28;20459;-71
2023/03/25 00:24:46;;;;;;;1.60;1.20;;;9.70;98.00;;;;;;5054220;28;20818;-70
2023/03/25 00:27:16;;;;;;;1.53;1.20;;;9.70;98.00;;;;;;5054018;28;20458;-71
2023/03/25 00:29:43;;;;;;;1.20;1.00;;;9.60;98.00;;;;;;5052969;28;20571;-70
2023/03/25 00:32:11;;;;;;;1.30;1.10;;;9.40;98.00;;;;;;5054162;28;20863;-71
2023/03/25 00:34:40;;;;;;;5.30;1.43;;;9.40;98.00;;;;;;5054141;28;20464;-70
2023/03/25 00:37:09;;;;;;;1.30;1.00;;;9.30;98.00;;;;;;5054022;28;20533;-71
2023/03/25 00:39:37;;;;;;;1.37;1.10;;;9.20;98.00;;;;;;5054155;28;20497;-71
2023/03/25 00:42:05;;;;;;;1.20;1.00;;;9.20;98.00;;;;;;5054038;28;20481;-71
2023/03/25 00:44:32;;;;;;;1.30;1.00;;;9.20;98.00;;;;;;5036291;28;20956;-71
2023/03/25 00:47:00;;;;;;;1.50;1.00;;;9.30;98.00;;;;;;5053724;28;20473;-71
2023/03/25 00:49:28;;;;;;;1.40;1.17;;;9.30;98.00;;;;;;5036227;28;20456;-71
2023/03/25 00:51:55;;;;;;;1.20;1.00;;;9.30;98.00;;;;;;5053846;28;20779;-71
2023/03/25 00:54:23;;;;;;;1.20;1.10;;;9.40;98.00;;;;;;5053964;28;20555;-71
2023/03/25 00:56:52;;;;;;;1.20;1.00;;;9.40;98.00;;;;;;5052578;28;20455;-71
2023/03/25 00:59:20;;;;;;;1.20;1.00;;;9.40;98.00;;;;;;5053862;28;20462;-71
2023/03/25 01:01:48;;;;;;;1.20;1.00;;;9.30;98.00;;;;;;5053848;28;20520;-71
2023/03/25 01:04:16;;;;;;;1.20;1.10;;;9.20;98.00;;;;;;5053401;28;20803;-70
2023/03/25 01:06:44;;;;;;;1.20;0.90;;;9.20;98.00;;;;;;5053424;28;20460;-71
2023/03/25 01:09:14;;;;;;;1.20;0.90;;;9.30;98.00;;;;;;5053192;28;20481;-71
2023/03/25 01:11:43;;;;;;;1.20;1.00;;;9.30;98.00;;;;;;5053255;28;20493;-71
2023/03/25 01:14:15;;;;;;;3.93;1.67;;;9.30;98.00;;;;;;5053054;28;20463;-72
2023/03/25 01:16:42;;;;;;;1.97;1.57;;;9.20;98.00;;;;;;5053205;28;20454;-71
2023/03/25 01:19:10;;;;;;;1.30;1.00;;;9.20;98.00;;;;;;5052985;28;20456;-71
2023/03/25 01:21:38;;;;;;;1.20;0.90;;;9.20;98.00;;;;;;5053344;28;20459;-71
2023/03/25 01:24:07;;;;;;;1.53;1.10;;;9.30;98.00;;;;;;5053006;28;20461;-71
2023/03/25 01:26:35;;;;;;;1.30;1.10;;;9.30;98.00;;;;;;5053243;28;20460;-72
2023/03/25 01:29:02;;;;;;;2.83;1.30;;;9.30;98.00;;;;;;5049943;28;20954;-71
2023/03/25 01:31:31;;;;;;;1.20;1.00;;;9.20;98.00;;;;;;5053303;28;20581;-71
2023/03/25 01:33:59;;;;;;;1.30;1.10;;;9.20;98.00;;;;;;5052745;28;20508;-71
2023/03/25 01:36:29;;;;;;;1.20;1.10;;;9.30;98.00;;;;;;5052986;28;20473;-71
2023/03/25 01:38:58;;;;;;;1.30;1.00;;;9.40;98.00;;;;;;5052941;28;20495;-71
2023/03/25 01:41:25;;;;;;;1.70;1.20;;;9.30;98.00;;;;;;5052910;28;20540;-71
2023/03/25 01:44:07;;;;;;;1.87;1.33;;;9.40;98.00;;;;;;5052724;28;20465;-71
2023/03/25 01:46:37;;;;;;;1.47;1.00;;;9.40;98.00;;;;;;5052802;28;20541;-71
2023/03/25 01:49:09;;;;;;;1.20;1.00;;;9.30;98.00;;;;;;5052759;28;20480;-71
2023/03/25 01:51:40;;;;;;;1.30;1.10;;;9.20;98.00;;;;;;5051668;28;20481;-71
2023/03/25 01:54:07;;;;;;;1.40;1.20;;;9.20;98.00;;;;;;5052697;28;20462;-71
2023/03/25 01:56:38;;;;;;;1.40;1.20;;;9.20;98.00;;;;;;5052883;28;20464;-71
2023/03/25 01:59:08;;;;;;;1.20;1.00;;;9.20;98.00;;;;;;5052457;28;20465;-71
2023/03/25 02:01:38;;;;;;;1.93;1.10;;;9.20;98.00;;;;;;5051452;28;20438;-71
2023/03/25 02:04:10;;;;;;;1.50;1.20;;;9.10;98.00;;;;;;5052183;28;20493;-71
2023/03/25 02:06:43;;;;;;;1.30;1.13;;;9.10;98.00;;;;;;5052027;28;20478;-72
2023/03/25 02:09:11;;;;;;;1.77;1.30;;;9.20;98.00;;;;;;5051018;28;21006;-71
2023/03/25 02:11:40;;;;;;;1.47;1.10;;;9.20;98.00;;;;;;5052327;28;21091;-71
2023/03/25 02:14:09;;;;;;;1.20;1.00;;;9.20;98.00;;;;;;5051932;28;20459;-71
2023/03/25 02:16:46;;;;;;;1.67;1.40;;;9.10;98.00;;;;;;5050928;28;20458;-71
2023/03/25 02:19:53;;;;;;;1.40;1.10;;;9.20;98.00;;;;;;5052138;28;20496;-71
2023/03/25 02:22:48;;;;;;;1.20;1.00;;;9.20;98.00;;;;;;5051215;28;20861;-71
2023/03/25 02:25:51;;;;;;;1.20;0.90;;;9.30;98.00;;;;;;5052041;28;20467;-71
2023/03/25 02:28:34;;;;;;;1.40;1.10;;;9.30;98.00;;;;;;5052105;28;20511;-71
2023/03/25 02:31:27;;;;;;;1.20;0.97;;;9.40;98.00;;;;;;5050821;28;20523;-71
2023/03/25 02:34:23;;;;;;;1.30;1.00;;;9.40;98.00;;;;;;5050403;28;20504;-71
2023/03/25 02:37:11;;;;;;;1.73;1.20;;;9.40;98.00;;;;;;5052109;28;20458;-71
2023/03/25 02:39:44;;;;;;;2.70;1.20;;;9.40;98.00;;;;;;5052365;28;20454;-71
2023/03/25 02:42:18;;;;;;;1.20;1.00;;;9.40;98.00;;;;;;5052282;28;20504;-72
2023/03/25 02:44:51;;;;;;;1.20;0.90;;;9.30;98.00;;;;;;5052498;28;20450;-71
2023/03/25 02:47:21;;;;;;;1.30;1.10;;;9.20;98.00;;;;;;5051364;28;20469;-71
2023/03/25 02:49:52;;;;;;;1.20;0.90;;;9.30;98.00;;;;;;5052508;28;20461;-71
2023/03/25 02:52:24;;;;;;;1.20;1.20;;;9.30;98.00;;;;;;5052439;28;20543;-71
2023/03/25 02:54:56;;;;;;;3.30;1.10;;;9.20;98.00;;;;;;5052275;28;20812;-71
2023/03/25 02:57:28;;;;;;;1.53;1.10;;;9.20;98.00;;;;;;5051904;28;20452;-71
2023/03/25 02:59:57;;;;;;;1.80;1.20;;;9.20;98.00;;;;;;5050213;28;20541;-71
2023/03/25 03:02:31;;;;;;;3.30;1.30;;;9.20;98.00;;;;;;5051535;28;20461;-71
2023/03/25 03:04:58;;;;;;;1.40;1.13;;;9.20;98.00;;;;;;5049905;28;20470;-71
2023/03/25 03:07:31;;;;;;;1.30;1.07;;;9.10;98.00;;;;;;5050950;28;20457;-71
2023/03/25 03:10:12;;;;;;;1.30;1.00;;;9.10;98.00;;;;;;5049624;28;20504;-71
2023/03/25 03:12:56;;;;;;;1.20;1.00;;;9.10;98.00;;;;;;5049851;28;20867;-72
2023/03/25 03:15:40;;;;;;;1.20;0.90;;;9.00;98.00;;;;;;5051320;28;20461;-71
2023/03/25 03:18:25;;;;;;;1.20;1.00;;;8.90;98.00;;;;;;5051482;28;20463;-71
2023/03/25 03:20:59;;;;;;;1.20;0.90;;;8.90;98.00;;;;;;5055374;28;20473;-72
2023/03/25 03:23:35;;;;;;;2.33;1.00;;;9.00;98.00;;;;;;5053903;28;20488;-72
2023/03/25 03:26:12;;;;;;;1.20;0.90;;;8.80;98.00;;;;;;5055274;28;20940;-71
2023/03/25 03:28:47;;;;;;;1.20;1.00;;;8.60;98.00;;;;;;5055453;28;20463;-71
2023/03/25 03:31:20;;;;;;;1.20;0.90;;;8.30;98.00;;;;;;5055229;28;20484;-71
2023/03/25 03:33:50;;;;;;;1.20;0.90;;;8.20;98.00;;;;;;5055335;28;20467;-72
2023/03/25 03:36:22;;;;;;;1.47;1.00;;;8.20;98.00;;;;;;5055444;28;20499;-72
2023/03/25 03:38:53;;;;;;;1.20;1.00;;;8.20;98.00;;;;;;5055272;28;20515;-71
2023/03/25 03:41:25;;;;;;;1.20;0.90;;;8.20;98.00;;;;;;5055342;28;20461;-71
2023/03/25 03:43:57;;;;;;;1.20;0.90;;;8.10;98.00;;;;;;5052600;28;20516;-72
2023/03/25 03:46:29;;;;;;;1.20;1.00;;;8.30;98.00;;;;;;5053975;28;20465;-71
2023/03/25 03:48:58;;;;;;;1.53;1.10;;;8.30;98.00;;;;;;5055230;28;20460;-71
2023/03/25 03:51:29;;;;;;;1.20;0.93;;;8.40;98.00;;;;;;5055078;28;20482;-71
2023/03/25 03:54:00;;;;;;;1.20;1.03;;;8.30;98.00;;;;;;5053967;28;20543;-71
2023/03/25 03:56:35;;;;;;;1.20;0.90;;;8.30;98.00;;;;;;5054436;28;20465;-72
2023/03/25 03:59:07;;;;;;;1.30;1.00;;;8.30;98.00;;;;;;5054472;28;20554;-71
2023/03/25 04:01:44;;;;;;;1.20;1.00;;;8.30;98.00;;;;;;5054376;28;20565;-71
2023/03/25 04:04:14;;;;;;;1.30;1.00;;;8.30;98.00;;;;;;5053724;28;20845;-71
2023/03/25 04:06:47;;;;;;;1.20;1.00;;;8.30;98.00;;;;;;5054582;28;20460;-71
2023/03/25 04:09:26;;;;;;;1.20;1.00;;;8.30;98.00;;;;;;5054308;28;20473;-71
2023/03/25 04:12:00;;;;;;;1.50;1.03;;;8.30;98.00;;;;;;5054528;28;20495;-71
2023/03/25 04:14:27;;;;;;;1.40;1.00;;;8.30;98.00;;;;;;5054486;28;21078;-71
2023/03/25 04:16:55;;;;;;;1.20;0.90;;;8.30;98.00;;;;;;5054420;28;20465;-72
2023/03/25 04:19:24;;;;;;;1.20;0.93;;;8.30;98.00;;;;;;5054297;28;20464;-71
2023/03/25 04:21:52;;;;;;;1.20;1.03;;;8.30;98.00;;;;;;5054405;28;20456;-72
2023/03/25 04:24:19;;;;;;;1.20;1.00;;;8.30;98.00;;;;;;5054063;28;20458;-71
2023/03/25 04:26:48;;;;;;;1.20;1.00;;;8.30;98.00;;;;;;5054426;28;20459;-71
2023/03/25 04:29:17;;;;;;;1.50;1.10;;;8.30;98.00;;;;;;5053689;28;20505;-72
2023/03/25 04:31:48;;;;;;;1.20;0.90;;;8.30;98.00;;;;;;5054092;28;20492;-71
2023/03/25 04:34:16;;;;;;;1.30;1.07;;;8.30;98.00;;;;;;5054123;28;20460;-71
2023/03/25 04:36:43;;;;;;;1.53;1.00;;;8.30;98.00;;;;;;5054409;28;20461;-71
2023/03/25 04:39:11;;;;;;;1.30;1.00;;;8.30;98.00;;;;;;5052849;28;20509;-71
2023/03/25 04:41:38;;;;;;;1.20;1.00;;;8.20;98.00;;;;;;5053142;28;20813;-72
2023/03/25 04:44:07;;;;;;;1.20;1.00;;;8.30;98.00;;;;;;5054032;28;20827;-72
2023/03/25 04:46:37;;;;;;;1.70;1.00;;;8.30;98.00;;;;;;5053837;28;20527;-71
2023/03/25 04:49:12;;;;;;;1.63;1.10;;;8.30;98.00;;;;;;5053917;28;20454;-71
2023/03/25 04:51:43;;;;;;;1.20;1.00;;;8.40;98.00;;;;;;5054053;28;20878;-71
2023/03/25 04:54:10;;;;;;;1.50;1.10;;;8.40;98.00;;;;;;5052545;28;20488;-71
2023/03/25 04:56:38;;;;;;;1.20;0.90;;;8.40;98.00;;;;;;5054041;28;20528;-71
2023/03/25 04:59:05;;;;;;;1.20;0.90;;;8.40;98.00;;;;;;5053865;28;20560;-71
2023/03/25 05:01:36;;;;;;;1.20;0.90;;;8.40;98.00;;;;;;5053624;28;20460;-71
2023/03/25 05:04:06;;;;;;;1.20;1.00;;;8.40;98.00;;;;;;5053552;28;20461;-71
2023/03/25 05:06:34;;;;;;;1.20;1.00;;;8.40;98.00;;;;;;5053355;28;20453;-71
2023/03/25 05:09:03;;;;;;;1.20;1.00;;;8.30;98.00;;;;;;5053230;28;20458;-71
2023/03/25 05:11:31;;;;;;;1.20;1.00;;;8.30;98.00;;;;;;5053266;28;20477;-71
2023/03/25 05:13:59;;;;;;;1.20;0.90;;;8.30;98.00;;;;;;5053162;28;20460;-71
2023/03/25 05:16:26;;;;;;;1.37;1.00;;;8.20;98.00;;;;;;5051651;28;20458;-71
2023/03/25 05:18:53;;;;;;;1.20;1.00;;;8.20;98.00;;;;;;5052715;28;20537;-71
2023/03/25 05:21:21;;;;;;;1.20;1.00;;;8.10;98.00;;;;;;5051232;28;20456;-71
2023/03/25 05:23:51;;;;;;;1.30;0.90;;;8.10;98.00;;;;;;5052301;28;20457;-71
2023/03/25 05:26:19;;;;;;;1.30;1.07;;;8.10;98.00;;;;;;5052082;28;20511;-71
2023/03/25 05:28:50;;;;;;;1.60;1.10;;;8.10;98.00;;;;;;5052514;28;20493;-71
2023/03/25 05:31:17;;;;;;;1.20;1.00;;;8.20;98.00;;;;;;5052155;28;20543;-71
2023/03/25 05:33:44;;;;;;;2.10;1.10;;;8.20;98.00;;;;;;5052214;28;20468;-71
2023/03/25 05:36:13;;;;;;;1.20;0.93;;;8.20;98.00;;;;;;5052150;28;20470;-71
2023/03/25 05:38:42;;;;;;;3.43;1.40;;;8.10;98.00;;;;;;5052219;28;20454;-71
2023/03/25 05:41:15;;;;;;;1.30;1.07;;;8.20;98.00;;;;;;5051325;28;20589;-71
2023/03/25 05:43:46;;;;;;;1.20;0.90;;;8.20;98.00;;;;;;5052215;28;20944;-71
2023/03/25 05:46:14;;;;;;;1.20;1.10;;;8.20;98.00;;;;;;5051975;28;20466;-71
2023/03/25 05:48:41;;;;;;;1.30;1.10;;;8.30;98.00;;;;;;5034450;28;20854;-71
2023/03/25 05:51:14;;;;;;;1.20;0.90;;;8.30;98.00;;;;;;5051917;28;20977;-73
2023/03/25 05:53:43;;;;;;;1.20;1.00;;;8.30;98.00;;;;;;5052127;28;20456;-71
2023/03/25 05:56:11;;;;;;;1.30;1.20;;;8.30;98.00;;;;;;5052091;28;20511;-71
2023/03/25 05:58:38;;;;;;;2.80;1.30;;;8.40;98.00;;;;;;5050856;28;20516;-71
2023/03/25 06:01:06;;;;;;;1.20;1.10;;;8.50;98.00;;;;;;5051703;28;20458;-70
2023/03/25 06:03:34;;;;;;;1.30;1.10;;;8.60;98.00;;;;;;5051813;28;20459;-71
2023/03/25 06:06:04;;;;;;;1.33;1.10;;;8.70;98.00;;;;;;5051563;28;20520;-71
2023/03/25 06:08:34;;;;;;;5.37;1.10;;;8.70;98.00;;;;;;5051776;28;20537;-71
2023/03/25 06:11:02;;;;;;;1.20;1.00;;;8.80;98.00;;;;;;5051500;28;20515;-71
2023/03/25 06:13:32;;;;;;;1.20;1.00;;;8.80;98.00;;;;;;5051698;28;20477;-71
2023/03/25 06:16:01;;;;;;;1.53;1.17;;;8.90;98.00;;;;;;5051508;28;20457;-71
2023/03/25 06:18:29;;;;;;;1.30;1.00;;;8.90;98.00;;;;;;5051685;28;20466;-71
2023/03/25 06:20:59;;;;;;;1.30;1.00;;;8.90;98.00;;;;;;5051437;28;20461;-71
2023/03/25 06:23:26;;;;;;;2.90;1.27;;;8.90;98.00;;;;;;5052187;28;20455;-72
2023/03/25 06:25:55;;;;;;;4.40;1.30;;;8.90;98.00;;;;;;5051889;28;20454;-71
2023/03/25 06:28:23;;;;;;;1.20;1.00;;;8.90;98.00;;;;;;5050690;28;20465;-71
2023/03/25 06:30:50;;;;;;;1.30;1.10;;;8.90;98.00;;;;;;5052056;28;20464;-71
2023/03/25 06:33:22;;;;;;;1.50;1.10;;;8.90;98.00;;;;;;5051822;28;20485;-71
2023/03/25 06:35:52;;;;;;;3.20;1.27;;;8.90;98.00;;;;;;5051863;28;20469;-71
2023/03/25 06:38:21;;;;;;;1.67;1.00;;;8.90;98.00;;;;;;5052003;28;20457;-71
2023/03/25 06:40:48;;;;;;;1.20;1.00;;;8.90;98.00;;;;;;5050738;28;21086;-71
2023/03/25 06:43:18;;;;;;;1.20;1.00;;;9.00;98.00;;;;;;5050535;28;20457;-72
2023/03/25 06:45:50;;;;;;;1.20;1.00;;;9.00;98.00;;;;;;5050436;28;20506;-71
2023/03/25 06:48:17;;;;;;;1.20;1.00;;;9.10;98.00;;;;;;5052014;28;20545;-71
2023/03/25 06:50:45;;;;;;;1.20;1.00;;;9.10;98.00;;;;;;5051840;28;20957;-71
2023/03/25 06:53:12;;;;;;;1.20;1.00;;;9.10;98.00;;;;;;5053823;28;20516;-71
2023/03/25 06:55:40;;;;;;;1.20;0.93;;;9.00;98.00;;;;;;5058482;28;20449;-71
2023/03/25 06:58:07;;;;;;;1.20;0.90;;;9.00;98.00;;;;;;5058070;28;20459;-71
2023/03/25 07:00:34;;;;;;;1.60;1.20;;;9.10;98.00;;;;;;5058350;28;20837;-65
2023/03/25 07:03:05;;;;;;;1.60;1.10;;;9.20;98.00;;;;;;5058095;28;20511;-64
2023/03/25 07:05:32;;;;;;;1.30;1.30;;;9.40;98.00;;;;;;5058018;28;20507;-64
2023/03/25 07:07:59;;;;;;;3.10;1.20;;;9.50;98.00;;;;;;5057852;28;20509;-63
2023/03/25 07:10:27;;;;;;;4.03;1.20;;;9.60;98.00;;;;;;5058270;28;20456;-63
2023/03/25 07:12:54;;;;;;;2.17;1.20;;;9.60;98.00;;;;;;5057826;28;20490;-64
2023/03/25 07:15:21;;;;;;;1.50;1.17;;;9.70;98.00;;;;;;5056733;28;20458;-63
2023/03/25 07:17:48;;;;;;;1.40;1.10;;;9.70;98.00;;;;;;5058030;28;20515;-64
2023/03/25 07:20:17;;;;;;;1.20;1.00;;;9.70;98.00;;;;;;5057633;28;20458;-63
2023/03/25 07:22:46;;;;;;;1.40;1.00;;;9.80;98.00;;;;;;5057706;28;20972;-65
2023/03/25 07:25:13;;;;;;;1.20;1.10;;;9.80;98.00;;;;;;5057583;28;20641;-64
2023/03/25 07:27:41;;;;;;;2.90;1.37;;;9.80;98.00;;;;;;5057761;28;20485;-65
2023/03/25 07:30:09;;;;;;;1.30;1.00;;;9.80;98.00;;;;;;5057477;28;20532;-63
2023/03/25 07:32:37;;;;;;;1.90;1.10;;;9.80;98.00;;;;;;5057364;28;20485;-62
2023/03/25 07:35:05;;;;;;;1.30;1.10;;;9.80;98.00;;;;;;5057226;28;20461;-62
2023/03/25 07:37:33;;;;;;;4.30;1.10;;;9.90;98.00;;;;;;5056292;28;20464;-64
2023/03/25 07:40:00;;;;;;;1.30;1.10;;;9.70;98.00;;;;;;5057375;28;20460;-64
2023/03/25 07:42:27;;;;;;;1.20;0.90;;;9.70;98.00;;;;;;5057493;28;20454;-64
2023/03/25 07:44:54;;;;;;;1.97;1.20;;;9.60;98.00;;;;;;5056038;28;20948;-63
2023/03/25 07:47:21;;;;;;;1.63;1.10;;;9.50;98.00;;;;;;5057578;28;20469;-64
2023/03/25 07:49:50;;;;;;;1.50;1.10;;;9.50;98.00;;;;;;5057197;28;20982;-65
2023/03/25 07:52:17;;;;;;;1.40;1.10;;;9.40;98.00;;;;;;5056152;28;20490;-65
2023/03/25 07:54:45;;;;;;;1.20;1.03;;;9.40;98.00;;;;;;5057564;28;20478;-64
2023/03/25 07:57:13;;;;;;;1.20;1.10;;;9.40;98.00;;;;;;5057419;28;20498;-65
2023/03/25 07:59:40;;;;;;;1.90;1.27;;;9.50;98.00;;;;;;5057223;28;21046;-62
2023/03/25 08:02:08;;;;;;;1.40;1.20;;;9.60;98.00;;;;;;5057202;28;20544;-65
2023/03/25 08:04:35;;;;;;;1.20;1.00;;;9.70;98.00;;;;;;5054904;28;20500;-64
2023/03/25 08:07:02;;;;;;;1.50;1.10;;;9.70;98.00;;;;;;5053944;28;20457;-64
2023/03/25 08:09:30;;;;;;;1.20;0.97;;;10.00;98.00;;;;;;5054033;28;20471;-63
2023/03/25 08:11:59;;;;;;;1.40;1.00;;;10.10;98.00;;;;;;5053881;28;21000;-65
2023/03/25 08:14:27;;;;;;;1.20;0.90;;;10.20;98.00;;;;;;5053878;28;20454;-66
2023/03/25 08:16:54;;;;;;;1.20;0.90;;;10.20;98.00;;;;;;5053787;28;20888;-64
2023/03/25 08:19:21;;;;;;;1.20;1.00;;;10.40;98.00;;;;;;5053695;28;20454;-64
2023/03/25 08:21:50;;;;;;;1.20;1.03;;;10.40;98.00;;;;;;5053769;28;20457;-63
2023/03/25 08:24:17;;;;;;;1.70;1.00;;;10.60;98.00;;;;;;5053815;28;20672;-65
2023/03/25 08:26:44;;;;;;;2.23;1.10;;;10.80;98.00;;;;;;5053888;28;20462;-63
2023/03/25 08:29:16;;;;;;;1.20;1.00;;;10.70;98.00;;;;;;5052380;28;20450;-63
2023/03/25 08:31:45;;;;;;;1.43;0.97;;;10.70;98.00;;;;;;5053468;28;20458;-65
2023/03/25 08:34:13;;;;;;;1.20;1.00;;;10.70;98.00;;;;;;5053639;28;20454;-65
2023/03/25 08:36:40;;;;;;;1.20;1.00;;;10.70;98.00;;;;;;5053480;28;20452;-66
2023/03/25 08:39:10;;;;;;;1.20;1.00;;;10.60;98.00;;;;;;5053302;28;20448;-65
2023/03/25 08:41:37;;;;;;;11.00;1.30;;;10.70;98.00;;;;;;5053371;28;20449;-65
2023/03/25 08:44:05;;;;;;;1.20;1.00;;;10.90;98.00;;;;;;5050542;28;20490;-65
2023/03/25 08:46:35;;;;;;;2.23;1.20;;;11.00;98.00;;;;;;5031261;28;20462;-65
2023/03/25 08:49:02;;;;;;;1.20;1.00;;;11.30;98.00;;;;;;5033401;28;20463;-64
2023/03/25 08:51:29;;;;;;;1.60;1.40;;;11.50;98.00;;;;;;5032153;28;20458;-63
2023/03/25 08:53:56;;;;;;;1.57;1.20;;;11.60;98.00;;;;;;5032954;28;20494;-64
2023/03/25 08:56:24;;;;;;;1.40;1.10;;;11.80;98.00;;;;;;5032862;28;20508;-64
2023/03/25 08:58:51;;;;;;;1.30;1.00;;;11.80;98.00;;;;;;5033058;28;20459;-64
2023/03/25 09:01:20;;;;;;;1.30;1.00;;;11.80;98.00;;;;;;5032739;28;20455;-64
2023/03/25 09:03:49;;;;;;;1.30;1.10;;;11.70;98.00;;;;;;5032709;28;20537;-64
2023/03/25 09:06:16;;;;;;;1.20;1.00;;;11.50;98.00;;;;;;5038605;28;20533;-65
2023/03/25 09:08:43;;;;;;;1.20;0.90;;;11.20;98.00;;;;;;5033124;28;20515;-64
2023/03/25 09:11:12;;;;;;;1.20;1.00;;;10.90;98.00;;;;;;5031657;28;20497;-63
2023/03/25 09:13:40;;;;;;;1.20;0.90;;;10.20;98.00;;;;;;5031874;28;21000;-64
2023/03/25 09:16:08;;;;;;;1.20;0.93;;;10.00;98.00;;;;;;5042255;28;20458;-66
2023/03/25 09:18:36;;;;;;;1.50;1.00;;;9.80;98.00;;;;;;5051538;28;20547;-64
2023/03/25 09:21:04;;;;;;;1.20;1.00;;;9.80;98.00;;;;;;5052636;28;20874;-65
2023/03/25 09:23:35;;;;;;;1.20;0.90;;;9.70;98.00;;;;;;5031190;28;20477;-64
2023/03/25 09:26:04;;;;;;;1.20;0.90;;;9.70;98.00;;;;;;5036059;28;20465;-64
2023/03/25 09:28:32;;;;;;;1.20;0.90;;;9.70;98.00;;;;;;5043758;28;20814;-65
2023/03/25 09:31:00;;;;;;;9.63;1.17;;;9.80;98.00;;;;;;5039334;28;20467;-65
2023/03/25 09:33:28;;;;;;;1.17;1.00;;;9.80;98.00;;;;;;5042250;28;20482;-65
2023/03/25 09:35:55;;;;;;;1.17;0.90;;;9.90;98.00;;;;;;5042387;28;20460;-63
2023/03/25 09:38:24;;;;;;;1.67;1.03;;;9.90;98.00;;;;;;5042034;28;20459;-64
2023/03/25 09:40:51;;;;;;;1.63;1.00;;;9.90;98.00;;;;;;5043113;28;20448;-64
2023/03/25 09:43:36;;;;;;;1.10;1.00;;;10.20;98.00;;;;;;5053056;28;20461;-64
2023/03/25 09:46:04;;;;;;;1.10;0.90;;;10.70;98.00;;;;;;5052965;28;20462;-64
2023/03/25 09:48:36;;;;;;;1.30;1.00;;;11.00;98.00;;;;;;5053380;28;20524;-64
2023/03/25 09:51:06;;;;;;;1.77;1.40;;;11.10;98.00;;;;;;5052775;28;20474;-63
2023/03/25 09:53:40;;;;;;;1.50;1.00;;;11.20;98.00;;;;;;5051205;28;20517;-64
2023/03/25 09:56:12;;;;;;;1.10;0.90;;;11.30;98.00;;;;;;5052192;28;20457;-64
2023/03/25 09:58:42;;;;;;;1.33;1.07;;;11.30;98.00;;;;;;5052080;28;20465;-64
2023/03/25 10:01:26;;;;;;;2.13;1.37;;;11.30;98.00;;;;;;5051904;28;20461;-63
2023/03/25 10:04:09;;;;;;;1.40;1.10;;;11.40;98.00;;;;;;5051975;28;20457;-66
2023/03/25 10:06:43;;;;;;;1.40;1.10;;;11.50;98.00;;;;;;5051876;28;20869;-64
2023/03/25 10:09:30;;;;;;;1.37;1.13;;;11.50;98.00;;;;;;5051778;28;20751;-63
2023/03/25 10:12:05;;;;;;;1.23;0.93;;;11.70;98.00;;;;;;5050568;28;20453;-65
2023/03/25 10:14:40;;;;;;;1.20;1.00;;;11.90;98.00;;;;;;5051706;28;20995;-66
2023/03/25 10:17:17;;;;;;;1.20;1.10;;;12.20;98.00;;;;;;5051623;28;20812;-65
2023/03/25 10:19:54;;;;;;;1.20;0.90;;;12.50;98.00;;;;;;5051350;28;20808;-66
2023/03/25 10:22:27;;;;;;;1.30;1.07;;;12.60;98.00;;;;;;5051581;28;20459;-66
2023/03/25 10:25:06;;;;;;;1.50;1.13;;;12.80;98.00;;;;;;5051338;28;20969;-66
2023/03/25 10:27:38;;;;;;;1.60;1.10;;;12.80;98.00;;;;;;5051048;28;20452;-66
2023/03/25 10:30:13;;;;;;;1.20;1.10;;;12.60;98.00;;;;;;5051589;28;20469;-66
2023/03/25 10:32:45;;;;;;;1.47;1.00;;;12.50;98.00;;;;;;5051470;28;20834;-65
2023/03/25 10:35:19;;;;;;;1.20;1.00;;;12.40;98.00;;;;;;5051277;28;20461;-64
2023/03/25 10:37:51;;;;;;;1.20;0.93;;;12.40;98.00;;;;;;5051583;28;20455;-64
2023/03/25 10:40:26;;;;;;;1.20;1.10;;;12.30;98.00;;;;;;5051244;28;20469;-63
2023/03/25 10:43:03;;;;;;;1.20;1.00;;;12.50;98.00;;;;;;5051321;28;20455;-64
2023/03/25 10:45:30;;;;;;;1.30;1.20;;;12.40;98.00;;;;;;5051106;28;20980;-65
2023/03/25 10:48:05;;;;;;;1.53;1.10;;;12.10;98.00;;;;;;5051290;28;20455;-65
2023/03/25 10:50:32;;;;;;;2.67;1.17;;;11.90;98.00;;;;;;5051459;28;20548;-66
2023/03/25 10:53:00;;;;;;;1.27;1.07;;;12.20;98.00;;;;;;5051877;28;20511;-64
2023/03/25 10:55:33;;;;;;;1.20;1.10;;;12.20;98.00;;;;;;5051090;28;20833;-63
2023/03/25 10:58:02;;;;;;;1.40;1.10;;;12.20;98.00;;;;;;5051769;28;20944;-66
2023/03/25 11:00:29;;;;;;;1.20;0.90;;;12.40;98.00;;;;;;5051915;28;20458;-64
2023/03/25 11:02:56;;;;;;;1.30;1.00;;;12.40;98.00;;;;;;5051324;28;21011;-66
2023/03/25 11:05:28;;;;;;;1.43;1.17;;;12.40;98.00;;;;;;5051590;28;20456;-66
2023/03/25 11:07:57;;;;;;;1.30;1.00;;;12.40;98.00;;;;;;5048090;28;20892;-64
2023/03/25 11:10:28;;;;;;;1.37;1.03;;;12.40;98.00;;;;;;5051730;28;20868;-66
2023/03/25 11:13:00;;;;;;;2.37;1.10;;;12.40;98.00;;;;;;5051402;28;20549;-66
2023/03/25 11:15:31;;;;;;;1.40;1.10;;;12.20;98.00;;;;;;5051633;28;20443;-65
2023/03/25 11:18:02;;;;;;;1.50;1.00;;;12.20;98.00;;;;;;5050219;28;20459;-64
2023/03/25 11:20:35;;;;;;;1.20;1.00;;;12.10;98.00;;;;;;5051552;28;20501;-65
2023/03/25 11:23:12;;;;;;;1.30;1.00;;;12.00;98.00;;;;;;5051568;28;20958;-66
2023/03/25 11:25:42;;;;;;;1.20;1.10;;;12.00;98.00;;;;;;5050175;28;20466;-67
2023/03/25 11:28:20;;;;;;;1.50;1.00;;;12.10;98.00;;;;;;5051437;28;20524;-65
2023/03/25 11:31:10;;;;;;;1.20;0.93;;;12.50;98.00;;;;;;5051465;28;20529;-66
2023/03/25 11:33:38;;;;;;;1.20;1.03;;;12.50;98.00;;;;;;5051408;28;20487;-66
2023/03/25 11:36:20;;;;;;;1.30;1.07;;;12.50;98.00;;;;;;5051330;28;20470;-64
2023/03/25 11:38:53;;;;;;;1.20;1.00;;;12.60;98.00;;;;;;5051534;28;20464;-66
2023/03/25 11:41:20;;;;;;;1.20;1.00;;;12.50;98.00;;;;;;5054808;28;20496;-65
2023/03/25 11:43:50;;;;;;;1.20;1.00;;;12.50;98.00;;;;;;5055259;28;20500;-65
2023/03/25 11:46:20;;;;;;;1.97;1.07;;;12.60;98.00;;;;;;5055038;28;20460;-66
2023/03/25 11:48:49;;;;;;;4.23;1.20;;;12.80;98.00;;;;;;5055443;28;20465;-66
2023/03/25 11:51:21;;;;;;;1.70;1.10;;;12.60;98.00;;;;;;5055032;28;20461;-64
2023/03/25 11:53:54;;;;;;;1.20;0.97;;;12.80;98.00;;;;;;5055021;28;20484;-65
2023/03/25 11:56:24;;;;;;;1.20;1.10;;;12.90;98.00;;;;;;5054887;28;20458;-65
2023/03/25 11:58:59;;;;;;;1.20;1.10;;;12.90;98.00;;;;;;5054933;28;20554;-66
2023/03/25 12:01:29;;;;;;;1.27;1.07;;;13.00;98.00;;;;;;5054652;28;20448;-65
2023/03/25 12:04:08;;;;;;;1.30;1.00;;;13.10;98.00;;;;;;5054580;28;20460;-66
2023/03/25 12:06:35;;;;;;;1.30;1.00;;;13.10;98.00;;;;;;5054705;28;20500;-66
2023/03/25 12:09:11;;;;;;;3.10;1.00;;;13.00;98.00;;;;;;5054812;28;20465;-66
2023/03/25 12:11:46;;;;;;;1.40;1.03;;;13.20;98.00;;;;;;5054728;28;20501;-66
2023/03/25 12:14:22;;;;;;;1.50;1.20;;;13.80;98.00;;;;;;5053420;28;20680;-66
2023/03/25 12:16:57;;;;;;;1.30;1.00;;;13.90;98.00;;;;;;5039416;28;20461;-65
2023/03/25 12:19:32;;;;;;;2.07;1.10;;;13.90;98.00;;;;;;5034613;28;20790;-64
2023/03/25 12:22:17;;;;;;;1.30;1.10;;;13.50;98.00;;;;;;5034248;28;20473;-65
2023/03/25 12:25:02;;;;;;;2.07;1.00;;;13.10;98.00;;;;;;5033774;28;20546;-65
2023/03/25 12:27:41;;;;;;;4.80;1.27;;;12.70;98.00;;;;;;5034518;28;20463;-65
2023/03/25 12:30:24;;;;;;;1.20;1.03;;;12.90;98.00;;;;;;5034735;28;20854;-65
2023/03/25 12:33:01;;;;;;;1.23;1.00;;;13.60;98.00;;;;;;5034361;28;20500;-64
2023/03/25 12:35:37;;;;;;;1.20;1.10;;;14.20;98.00;;;;;;5034410;28;20465;-66
2023/03/25 12:38:32;;;;;;;1.20;1.00;;;15.00;98.00;;;;;;5033082;28;20465;-65
2023/03/25 12:41:12;;;;;;;4.07;1.10;;;15.60;98.00;;;;;;5034213;28;20499;-66
2023/03/25 12:43:52;;;;;;;1.87;1.20;;;15.60;98.00;;;;;;5034343;28;20528;-64
2023/03/25 12:46:35;;;;;;;1.20;1.00;;;15.20;98.00;;;;;;5034005;28;20526;-64
2023/03/25 12:49:16;;;;;;;1.30;1.30;;;14.50;98.00;;;;;;5034412;28;20469;-67
2023/03/25 12:51:54;;;;;;;1.70;1.10;;;14.10;98.00;;;;;;5033793;28;20875;-66
2023/03/25 12:54:36;;;;;;;1.37;1.10;;;14.00;98.00;;;;;;5032871;28;20489;-64
2023/03/25 12:57:12;;;;;;;1.20;1.00;;;13.90;98.00;;;;;;5033946;28;20469;-64
2023/03/25 13:00:08;;;;;;;1.30;1.10;;;13.80;98.00;;;;;;5033785;28;20485;-66
2023/03/25 13:03:06;;;;;;;1.90;1.30;;;13.40;98.00;;;;;;5012068;28;20462;-63
2023/03/25 13:05:40;;;;;;;1.20;1.00;;;13.20;98.00;;;;;;5033536;28;20456;-67
2023/03/25 13:08:15;;;;;;;1.30;1.10;;;13.00;98.00;;;;;;5033908;28;20461;-65
2023/03/25 13:10:44;;;;;;;1.33;1.10;;;12.90;98.00;;;;;;5033586;28;20973;-65
2023/03/25 13:13:16;;;;;;;1.40;1.10;;;12.80;98.00;;;;;;5032237;28;20978;-65
2023/03/25 13:15:46;;;;;;;1.47;1.10;;;12.60;98.00;;;;;;5033561;28;20467;-65